NORTHEAST SUFFOLK  -  Rip Current Statement Rip Current Statement        NORTHERN NASSAU  -  Rip Current Statement Rip Current Statement        NORTHERN QUEENS  -  Rip Current Statement Rip Current Statement        NORTHWEST SUFFOLK  -  Rip Current Statement Rip Current Statement        SOUTHEAST SUFFOLK  -  Rip Current Statement Rip Current Statement        SOUTHERN NASSAU  -  Rip Current Statement Rip Current Statement        SOUTHERN QUEENS  -  Rip Current Statement Rip Current Statement        SOUTHWEST SUFFOLK  -  Rip Current Statement Rip Current Statement      

Active alerts

Northern Queens
  Details for Northern Queens Rip Current Statement
Southern Queens
  Details for Southern Queens Rip Current Statement
Northern Nassau
  Details for Northern Nassau Rip Current Statement
Southern Nassau
  Details for Southern Nassau Rip Current Statement
Northwest Suffolk
  Details for Northwest Suffolk Rip Current Statement
Southwest Suffolk
  Details for Southwest Suffolk Rip Current Statement
Northeast Suffolk
  Details for Northeast Suffolk Rip Current Statement
Southeast Suffolk
  Details for Southeast Suffolk Rip Current Statement


WXM80 ListenWXM80 Stop

You find our weather info also at:

UK Metoffice

WeatherCloud

Weather Underground

Northeastern Weather Network

AWEKAS

Citizen Weather Observer Program (CWOP)

HAMweather, WeatherForYou, PWS Weather


Weather Underground History page Text

Daily Summary for February 24, 2017 Units:  Metric    English   Both
« Previous Day
Next Day »
Daily Weekly Monthly Yearly Custom
  High: Low: Average:
Temperature: 22.1 °C 9.7 °C 15 °C
Dew Point: 15 °C 8.2 °C 11.9 °C
Humidity: 96 % 62 % 83 %
Wind Speed: 15.3 km/h 0 km/h 6 km/h
Wind Gust: 25.9 km/h - -
Wind:- - SSW
Pressure: 1013.8 hPa 1010 hPa -
Precipitation: 0 mm    
Historical Graphs
 
 
Tabular Data for February 24, 2017
Time Temperature Dew Point Pressure Wind Wind Speed Wind Gust Humidity Rainfall Rate (Hourly)
00:03 11.9 °C 9.8 °C 1011.7 hPa SW 3.7 km/h 5.6 km/h 87 % 0 mm
00:08 11.8 °C 9.7 °C 1011.4 hPa SW 0.2 km/h 3.7 km/h 87 % 0 mm
00:13 11.8 °C 9.5 °C 1011.7 hPa SW 0.3 km/h   86 % 0 mm
00:18 11.7 °C 9.2 °C 1011.4 hPa SW 0.2 km/h 1.9 km/h 85 % 0 mm
00:23 11.7 °C 9.4 °C 1011.4 hPa Calm   1.9 km/h 86 % 0 mm
00:28 11.6 °C 9.5 °C 1011.7 hPa WSW 1.6 km/h 4.8 km/h 87 % 0 mm
00:33 11.6 °C 9.4 °C 1011.7 hPa WSW 1.6 km/h 3.2 km/h 87 % 0 mm
00:38 11.4 °C 9.3 °C 1011.7 hPa SW 3.2 km/h 11.3 km/h 87 % 0 mm
00:43 11.3 °C 8.7 °C 1011.4 hPa Calm   4.8 km/h 84 % 0 mm
00:48 11.1 °C 8.5 °C 1011.7 hPa SW 1.6 km/h 4.8 km/h 84 % 0 mm
00:53 11 °C 8.6 °C 1011.7 hPa Calm   4.8 km/h 85 % 0 mm
00:58 10.9 °C 8.5 °C 1011.7 hPa WSW 1.9 km/h 3.7 km/h 85 % 0 mm
01:03 10.8 °C 8.3 °C 1011.7 hPa WSW 1.8 km/h 3.7 km/h 85 % 0 mm
01:08 10.6 °C 8.2 °C 1011.7 hPa SSW 2.9 km/h 7.4 km/h 85 % 0 mm
01:13 10.6 °C 8.5 °C 1011.7 hPa SW 0.5 km/h 3.2 km/h 87 % 0 mm
01:18 10.5 °C 8.6 °C 1011.7 hPa SSW 5.5 km/h 7.4 km/h 88 % 0 mm
01:23 10.6 °C 9 °C 1011.7 hPa SSW 2.3 km/h 5.6 km/h 90 % 0 mm
01:28 10.7 °C 9.3 °C 1011.7 hPa SSW 6.1 km/h 8 km/h 91 % 0 mm
01:33 10.7 °C 9.3 °C 1011.7 hPa SSW 4.3 km/h 5.6 km/h 91 % 0 mm
01:38 10.8 °C 9.4 °C 1012.1 hPa SSW 6.1 km/h 7.4 km/h 91 % 0 mm
01:43 10.9 °C 9.7 °C 1011.7 hPa SSW 3.2 km/h 7.4 km/h 92 % 0 mm
01:48 11 °C 9.6 °C 1012.1 hPa SW 3.9 km/h 5.6 km/h 91 % 0 mm
01:54 11.1 °C 9.7 °C 1012.1 hPa SW 1 km/h 5.6 km/h 91 % 0 mm
01:59 11.1 °C 9.7 °C 1012.1 hPa SSW 2.9 km/h 4.8 km/h 91 % 0 mm
02:04 11.1 °C 9.7 °C 1011.7 hPa SSW 1.4 km/h 5.6 km/h 91 % 0 mm
02:09 11.2 °C 9.8 °C 1012.1 hPa Calm     91 % 0 mm
02:14 11.2 °C 9.8 °C 1012.1 hPa SSW 0.5 km/h 3.7 km/h 91 % 0 mm
02:19 11.2 °C 9.6 °C 1012.1 hPa SSW 3.2 km/h 5.6 km/h 90 % 0 mm
02:24 11.2 °C 9.6 °C 1012.1 hPa SW 1.6 km/h 5.6 km/h 90 % 0 mm
02:29 11.1 °C 9.6 °C 1012.1 hPa SSW 0.5 km/h 5.6 km/h 90 % 0 mm
02:34 11.1 °C 9.5 °C 1012.1 hPa SSW 3.2 km/h 5.6 km/h 90 % 0 mm
02:39 11.1 °C 9.5 °C 1012.1 hPa SW 1.6 km/h 5.6 km/h 90 % 0 mm
02:44 11 °C 9.4 °C 1012.1 hPa South 4.2 km/h 9.7 km/h 90 % 0 mm
02:49 10.9 °C 9.4 °C 1012.1 hPa SSW 2.4 km/h 7.4 km/h 90 % 0 mm
02:54 10.9 °C 9.3 °C 1012.1 hPa SSW 2.4 km/h 7.4 km/h 90 % 0 mm
02:59 10.8 °C 9.3 °C 1012.1 hPa SW 2.6 km/h 7.4 km/h 90 % 0 mm
03:04 10.8 °C 9.2 °C 1012.1 hPa SW 3.5 km/h 7.4 km/h 90 % 0 mm
03:09 10.8 °C 9.4 °C 1012.1 hPa SW 1.8 km/h 3.7 km/h 91 % 0 mm
03:14 10.8 °C 9.4 °C 1012.1 hPa SW 1.8 km/h 3.7 km/h 91 % 0 mm
03:19 10.7 °C 9.3 °C 1012.1 hPa SSW 3.7 km/h 5.6 km/h 91 % 0 mm
03:24 10.7 °C 9.3 °C 1012.1 hPa SW 3.9 km/h 5.6 km/h 91 % 0 mm
03:29 10.7 °C 9.3 °C 1012.1 hPa SW 1.1 km/h 3.7 km/h 91 % 0 mm
03:34 10.7 °C 9.3 °C 1012.1 hPa SW 2.3 km/h 3.7 km/h 91 % 0 mm
03:40 10.7 °C 9.3 °C 1012.1 hPa South 1.4 km/h 5.6 km/h 91 % 0 mm
03:45 10.7 °C 9.3 °C 1012.1 hPa WNW 0.6 km/h 5.6 km/h 91 % 0 mm
03:50 10.7 °C 9.3 °C 1012.1 hPa SW 4 km/h 5.6 km/h 91 % 0 mm
03:55 10.7 °C 9.3 °C 1012.1 hPa SW 1.4 km/h 3.2 km/h 91 % 0 mm
04:00 10.7 °C 9.3 °C 1012.1 hPa Calm   1.9 km/h 91 % 0 mm
04:05 10.7 °C 9.4 °C 1012.1 hPa SW 2.4 km/h 3.7 km/h 92 % 0 mm
04:10 10.7 °C 9.4 °C 1012.4 hPa SW 1 km/h 4.8 km/h 92 % 0 mm
04:15 10.7 °C 9.4 °C 1012.1 hPa SW 4.3 km/h 6.4 km/h 92 % 0 mm
04:20 10.7 °C 9.4 °C 1012.4 hPa WSW 3.7 km/h 6.4 km/h 92 % 0 mm
04:25 10.7 °C 9.6 °C 1012.4 hPa SSW 3.5 km/h 9.3 km/h 93 % 0 mm
04:30 10.7 °C 9.6 °C 1012.4 hPa SSW 4 km/h 8 km/h 93 % 0 mm
04:35 10.7 °C 9.6 °C 1012.4 hPa SW 2.3 km/h 5.6 km/h 93 % 0 mm
04:40 10.7 °C 9.4 °C 1012.4 hPa WSW 2.7 km/h 5.6 km/h 92 % 0 mm
04:45 10.7 °C 9.4 °C 1012.4 hPa SW 4.3 km/h 5.6 km/h 92 % 0 mm
04:50 10.6 °C 9.4 °C 1012.4 hPa SSW 2.9 km/h 5.6 km/h 92 % 0 mm
04:55 10.6 °C 9.4 °C 1012.4 hPa SW 2.3 km/h 3.7 km/h 92 % 0 mm
05:00 10.6 °C 9.4 °C 1012.4 hPa SW 3.5 km/h 5.6 km/h 92 % 0 mm
05:05 10.6 °C 9.4 °C 1012.4 hPa SSW 2.9 km/h 5.6 km/h 92 % 0 mm
05:10 10.6 °C 9.3 °C 1012.4 hPa SSW 1.3 km/h 3.7 km/h 92 % 0 mm
05:15 10.6 °C 9.3 °C 1012.4 hPa SW 1.1 km/h 3.7 km/h 92 % 0 mm
05:20 10.6 °C 9.3 °C 1012.4 hPa WSW 1.1 km/h 4.8 km/h 92 % 0 mm
05:25 10.6 °C 9.4 °C 1012.8 hPa WSW 4.7 km/h 5.6 km/h 93 % 0 mm
05:31 10.6 °C 9.5 °C 1012.8 hPa WSW 2.6 km/h 3.7 km/h 93 % 0 mm
05:36 10.6 °C 9.5 °C 1012.8 hPa WSW 0.6 km/h 3.7 km/h 93 % 0 mm
05:41 10.6 °C 9.5 °C 1012.4 hPa WSW 0.3 km/h 3.7 km/h 93 % 0 mm
05:46 10.6 °C 9.5 °C 1012.4 hPa WSW 1.1 km/h 1.9 km/h 93 % 0 mm
05:51 10.6 °C 9.4 °C 1012.4 hPa SW 2.4 km/h 5.6 km/h 93 % 0 mm
05:56 10.5 °C 9.4 °C 1012.4 hPa Calm     93 % 0 mm
06:01 10.4 °C 9.2 °C 1012.4 hPa Calm     92 % 0 mm
06:06 10.3 °C 9.1 °C 1012.4 hPa SW 0.3 km/h 3.2 km/h 92 % 0 mm
06:11 10.3 °C 9.1 °C 1012.4 hPa Calm     92 % 0 mm
06:16 10.2 °C 9 °C 1012.4 hPa Calm     92 % 0 mm
06:21 10.1 °C 8.7 °C 1012.4 hPa Calm     91 % 0 mm
06:26 9.8 °C 8.4 °C 1012.4 hPa Calm     91 % 0 mm
06:31 9.7 °C 8.3 °C 1012.4 hPa SSW 2.1 km/h 2.1 km/h 91 % 0 mm
06:36 9.7 °C 8.4 °C 1012.4 hPa SW 4 km/h 7.4 km/h 92 % 0 mm
06:41 9.8 °C 8.7 °C 1012.8 hPa West 4 km/h 7.4 km/h 93 % 0 mm
06:46 10 °C 9.1 °C 1012.8 hPa West 1.6 km/h 5.6 km/h 94 % 0 mm
06:51 10.1 °C 9.3 °C 1012.8 hPa Calm     95 % 0 mm
06:56 10.2 °C 9.4 °C 1012.8 hPa SSW 1.3 km/h 6.4 km/h 95 % 0 mm
07:01 10.3 °C 9.5 °C 1012.4 hPa SE 1 km/h 3.7 km/h 95 % 0 mm
07:06 10.4 °C 9.8 °C 1012.4 hPa South 1.8 km/h 6.4 km/h 96 % 0 mm
07:11 10.6 °C 9.8 °C 1012.8 hPa South 4 km/h 7.4 km/h 95 % 0 mm
07:16 10.7 °C 9.9 °C 1012.8 hPa SSW 7.9 km/h 9.7 km/h 95 % 0 mm
07:22 10.8 °C 10 °C 1012.8 hPa South 8 km/h 13 km/h 95 % 0 mm
07:27 10.9 °C 10.1 °C 1012.8 hPa SSW 7.2 km/h 13 km/h 95 % 0 mm
07:32 10.9 °C 10.2 °C 1012.8 hPa South 5.6 km/h 7.4 km/h 95 % 0 mm
07:37 11.2 °C 10.4 °C 1012.8 hPa South 6 km/h 13 km/h 95 % 0 mm
07:42 11.3 °C 10.6 °C 1012.8 hPa SSW 4 km/h 5.6 km/h 95 % 0 mm
07:47 11.7 °C 10.9 °C 1012.8 hPa SSW 6.4 km/h 9.3 km/h 95 % 0 mm
07:52 12.1 °C 11.1 °C 1012.8 hPa South 10.3 km/h 12.9 km/h 94 % 0 mm
07:57 12.6 °C 11.6 °C 1012.8 hPa SW 6.3 km/h 18.5 km/h 94 % 0 mm
08:02 13 °C 11.9 °C 1013.1 hPa SSW 7.1 km/h 16.7 km/h 93 % 0 mm
08:07 13.4 °C 12.2 °C 1013.1 hPa SSW 11.4 km/h 18.5 km/h 92 % 0 mm
08:12 13.8 °C 12.2 °C 1013.1 hPa SSW 7.2 km/h 20.4 km/h 90 % 0 mm
08:17 14.1 °C 12.2 °C 1013.1 hPa WSW 9.7 km/h 18.5 km/h 88 % 0 mm
08:22 14.3 °C 12.2 °C 1013.1 hPa SW 9.5 km/h 13 km/h 87 % 0 mm
08:27 14.5 °C 12.2 °C 1013.1 hPa SW 9.3 km/h 16.7 km/h 86 % 0 mm
08:32 14.8 °C 12.3 °C 1013.1 hPa SW 8.7 km/h 11.1 km/h 85 % 0 mm
08:37 15.1 °C 12.6 °C 1013.4 hPa WSW 11.6 km/h 18.5 km/h 85 % 0 mm
08:42 15.5 °C 13 °C 1013.4 hPa SW 8 km/h 16.7 km/h 85 % 0 mm
08:47 15.8 °C 12.9 °C 1013.4 hPa SW 5.8 km/h 18.5 km/h 83 % 0 mm
08:52 15.9 °C 12.7 °C 1013.4 hPa WNW 3.5 km/h 6.4 km/h 81 % 0 mm
08:57 15.8 °C 11.8 °C 1013.4 hPa West 4.3 km/h 6.4 km/h 77 % 0 mm
08:58 15.7 °C 11.7 °C 1013.4 hPa WNW 4 km/h 5.6 km/h 77 % 0 mm
09:03 15.5 °C 11.7 °C 1013.4 hPa WNW 2.6 km/h 5.6 km/h 78 % 0 mm
09:08 15.3 °C 11.5 °C 1013.4 hPa WNW 3.7 km/h 5.6 km/h 78 % 0 mm
09:14 15.2 °C 11.2 °C 1013.4 hPa WNW 2.3 km/h 3.7 km/h 77 % 0 mm
09:19 15 °C 10.8 °C 1013.4 hPa WNW 4.2 km/h 5.6 km/h 76 % 0 mm
09:24 14.9 °C 10.9 °C 1013.4 hPa NW 3.4 km/h 6.4 km/h 77 % 0 mm
09:29 14.9 °C 10.9 °C 1013.4 hPa NW 1.1 km/h 3.7 km/h 77 % 0 mm
09:34 15.3 °C 11.7 °C 1013.8 hPa Calm     79 % 0 mm
09:39 15.4 °C 10.8 °C 1013.8 hPa NNW 0.3 km/h 3.7 km/h 74 % 0 mm
09:44 15.4 °C 10.8 °C 1013.8 hPa NNW 0.2 km/h 1.6 km/h 74 % 0 mm
09:49 15 °C 10 °C 1013.4 hPa NNE 4 km/h 5.6 km/h 72 % 0 mm
09:54 14.4 °C 9.4 °C 1013.8 hPa NE 2.1 km/h 5.6 km/h 72 % 0 mm
09:59 14.2 °C 9.8 °C 1013.4 hPa NE 3.5 km/h 8 km/h 75 % 0 mm
10:04 14.1 °C 9.7 °C 1013.8 hPa NNE 0.6 km/h 5.6 km/h 75 % 0 mm
10:09 14.1 °C 9.5 °C 1013.4 hPa ENE 5.3 km/h 8 km/h 74 % 0 mm
10:14 13.4 °C 8.9 °C 1013.4 hPa NNE 3.5 km/h 5.6 km/h 74 % 0 mm
10:19 13.3 °C 9.3 °C 1013.4 hPa NNE 1 km/h 3.7 km/h 77 % 0 mm
10:24 13.3 °C 9.8 °C 1013.4 hPa NNE 1.8 km/h 5.6 km/h 79 % 0 mm
10:29 13.8 °C 10.4 °C 1013.4 hPa Calm   1.9 km/h 80 % 0 mm
10:34 14.3 °C 11.1 °C 1013.4 hPa NE 2.4 km/h 5.6 km/h 81 % 0 mm
10:39 14.9 °C 11.8 °C 1013.4 hPa WSW 1.8 km/h 6.4 km/h 82 % 0 mm
10:44 15.7 °C 13.2 °C 1013.1 hPa SSW 8.7 km/h 16.7 km/h 85 % 0 mm
10:49 16.9 °C 13.8 °C 1013.1 hPa WSW 11.4 km/h 18.5 km/h 82 % 0 mm
10:54 18.1 °C 14.2 °C 1013.1 hPa SSE 3.9 km/h 7.4 km/h 78 % 0 mm
10:59 19 °C 14.4 °C 1013.1 hPa SSE 10.5 km/h 16.7 km/h 75 % 0 mm
11:05 19.8 °C 14.8 °C 1013.1 hPa South 4.3 km/h 9.7 km/h 73 % 0 mm
11:10 20.5 °C 14.8 °C 1013.1 hPa SW 8.5 km/h 11.3 km/h 70 % 0 mm
11:15 20.9 °C 14.6 °C 1012.8 hPa SSW 7.6 km/h 13 km/h 67 % 0 mm
11:20 21.2 °C 14.6 °C 1012.8 hPa SSE 9.8 km/h 22.2 km/h 66 % 0 mm
11:25 21.3 °C 14.7 °C 1012.8 hPa South 10.3 km/h 16.1 km/h 66 % 0 mm
11:30 21.4 °C 14.8 °C 1012.8 hPa SSW 5.1 km/h 11.3 km/h 66 % 0 mm
11:35 21.7 °C 14.8 °C 1012.4 hPa SSE 12.6 km/h 18.5 km/h 65 % 0 mm
11:40 21.7 °C 14.8 °C 1012.4 hPa South 5.3 km/h 11.1 km/h 65 % 0 mm
11:45 21.8 °C 14.7 °C 1012.4 hPa SSW 7.9 km/h 9.3 km/h 64 % 0 mm
11:50 21.8 °C 14.7 °C 1012.4 hPa SSW 10.5 km/h 14.8 km/h 64 % 0 mm
11:55 21.8 °C 14.5 °C 1012.4 hPa SSW 9.5 km/h 13 km/h 63 % 0 mm
12:00 21.8 °C 14.5 °C 1012.4 hPa SW 10.6 km/h 14.8 km/h 63 % 0 mm
12:05 21.9 °C 14.5 °C 1012.4 hPa SSW 13.4 km/h 20.9 km/h 63 % 0 mm
12:10 21.9 °C 14.5 °C 1012.1 hPa SSW 11.3 km/h 14.8 km/h 63 % 0 mm
12:15 21.8 °C 14.5 °C 1012.1 hPa South 8.7 km/h 13 km/h 63 % 0 mm
12:20 21.9 °C 14.6 °C 1012.1 hPa South 12.2 km/h 18.5 km/h 63 % 0 mm
12:25 21.9 °C 14.6 °C 1012.1 hPa SE 6.6 km/h 14.5 km/h 63 % 0 mm
12:30 21.8 °C 14.5 °C 1011.7 hPa South 12.6 km/h 20.4 km/h 63 % 0 mm
12:35 21.7 °C 14.4 °C 1011.7 hPa SSW 14 km/h 24.1 km/h 63 % 0 mm
12:40 21.7 °C 14.6 °C 1011.7 hPa SW 12.4 km/h 18.5 km/h 64 % 0 mm
12:45 21.8 °C 14.7 °C 1011.7 hPa SW 10.9 km/h 18.5 km/h 64 % 0 mm
12:50 21.9 °C 14.5 °C 1011.7 hPa SSW 5.1 km/h 13 km/h 63 % 0 mm
12:51 21.9 °C 14.5 °C 1011.7 hPa SSW 3.9 km/h 13 km/h 63 % 0 mm
12:56 22 °C 14.6 °C 1011.4 hPa South 4.8 km/h 16.7 km/h 63 % 0 mm
13:01 22 °C 14.6 °C 1011.4 hPa SSE 13 km/h 18.5 km/h 63 % 0 mm
13:06 21.9 °C 14.5 °C 1011.4 hPa SW 15.3 km/h 20.4 km/h 63 % 0 mm
13:11 21.9 °C 14.8 °C 1011.1 hPa SSE 5.8 km/h 9.7 km/h 64 % 0 mm
13:16 22.1 °C 14.7 °C 1011.1 hPa SW 8 km/h 18.5 km/h 63 % 0 mm
13:21 22.1 °C 14.7 °C 1011.1 hPa SSW 8.9 km/h 13 km/h 63 % 0 mm
13:26 22.1 °C 14.7 °C 1011.1 hPa SSW 10.5 km/h 18.5 km/h 63 % 0 mm
13:31 22 °C 14.6 °C 1011.1 hPa South 10.1 km/h 24.1 km/h 63 % 0 mm
13:36 22 °C 14.6 °C 1011.1 hPa SW 11.4 km/h 14.8 km/h 63 % 0 mm
13:41 22.1 °C 14.7 °C 1011.1 hPa SSW 3.9 km/h 8 km/h 63 % 0 mm
13:46 22.1 °C 15 °C 1011.1 hPa South 8 km/h 18.5 km/h 64 % 0 mm
13:51 22.1 °C 14.4 °C 1011.1 hPa SE 8.9 km/h 14.8 km/h 62 % 0 mm
13:56 21.7 °C 14.1 °C 1011.1 hPa South 8.4 km/h 14.8 km/h 62 % 0 mm
14:01 21.7 °C 14.3 °C 1011.1 hPa SSW 8.7 km/h 11.3 km/h 63 % 0 mm
14:07 21.7 °C 14.1 °C 1010.7 hPa WSW 10.8 km/h 14.8 km/h 62 % 0 mm
14:12 21.5 °C 13.9 °C 1010.7 hPa SW 11.6 km/h 18.5 km/h 62 % 0 mm
14:17 21.4 °C 14.1 °C 1010.7 hPa SSW 11.4 km/h 22.2 km/h 63 % 0 mm
14:22 21.2 °C 13.9 °C 1010.7 hPa SW 11.3 km/h 18.5 km/h 63 % 0 mm
14:27 21.2 °C 14.1 °C 1010.7 hPa South 6.9 km/h 13 km/h 64 % 0 mm
14:32 21.2 °C 14.1 °C 1010.7 hPa South 12.2 km/h 18.5 km/h 64 % 0 mm
14:37 21.2 °C 14.1 °C 1010.7 hPa South 9.2 km/h 11.3 km/h 64 % 0 mm
14:42 21.1 °C 13.7 °C 1010.7 hPa SSW 9.3 km/h 25.9 km/h 63 % 0 mm
14:47 20.9 °C 13.8 °C 1010.7 hPa South 11.9 km/h 18.5 km/h 64 % 0 mm
14:52 20.8 °C 13.7 °C 1010.4 hPa South 5 km/h 16.7 km/h 64 % 0 mm
14:57 20.7 °C 13.7 °C 1010.7 hPa South 8.7 km/h 13 km/h 64 % 0 mm
15:02 20.6 °C 13.6 °C 1010.7 hPa SW 13.4 km/h 18.5 km/h 64 % 0 mm
15:07 20.5 °C 13.7 °C 1010.7 hPa SSW 2.7 km/h 6.4 km/h 65 % 0 mm
15:12 20.4 °C 13.7 °C 1010.7 hPa South 8.2 km/h 18.5 km/h 65 % 0 mm
15:17 20.3 °C 13.5 °C 1010.7 hPa South 6.3 km/h 14.8 km/h 65 % 0 mm
15:22 20.1 °C 13.6 °C 1010.7 hPa South 11.7 km/h 18.5 km/h 66 % 0 mm
15:27 20 °C 13.7 °C 1010.7 hPa South 12.1 km/h 16.7 km/h 67 % 0 mm
15:32 19.9 °C 13.6 °C 1010.7 hPa WSW 10.3 km/h 22.2 km/h 67 % 0 mm
15:37 19.8 °C 13.7 °C 1010.7 hPa South 5 km/h 7.4 km/h 68 % 0 mm
15:42 19.7 °C 13.6 °C 1010.7 hPa SSW 8.5 km/h 13 km/h 68 % 0 mm
15:48 19.5 °C 13.7 °C 1010.7 hPa South 9.5 km/h 18.5 km/h 69 % 0 mm
15:53 19.3 °C 13.5 °C 1010.7 hPa South 11.6 km/h 18.5 km/h 69 % 0 mm
15:58 19.3 °C 13.7 °C 1010.4 hPa South 3.5 km/h 12.9 km/h 70 % 0 mm
16:03 19.2 °C 13.6 °C 1010.7 hPa SW 6.4 km/h 9.3 km/h 70 % 0 mm
16:08 19.1 °C 13.5 °C 1010.7 hPa SSW 12.9 km/h 20.4 km/h 70 % 0 mm
16:13 18.9 °C 13.5 °C 1010.4 hPa SSW 10.8 km/h 20.4 km/h 71 % 0 mm
16:15 18.8 °C 13.4 °C 1010.4 hPa South 8 km/h 11.1 km/h 71 % 0 mm
16:20 18.6 °C 13.4 °C 1010.7 hPa South 14.5 km/h 25.7 km/h 72 % 0 mm
16:25 18.4 °C 13.4 °C 1010.4 hPa SSE 9.8 km/h 18.5 km/h 73 % 0 mm
16:30 18.2 °C 13.3 °C 1010.4 hPa South 10 km/h 13 km/h 73 % 0 mm
16:35 18.1 °C 13.4 °C 1010.4 hPa SSW 11.3 km/h 17.7 km/h 74 % 0 mm
16:40 18 °C 13.3 °C 1010.7 hPa South 11.3 km/h 17.7 km/h 74 % 0 mm
16:45 17.9 °C 13.4 °C 1010.7 hPa South 8.9 km/h 16.1 km/h 75 % 0 mm
16:50 17.8 °C 13.3 °C 1010.4 hPa South 14.3 km/h 19.3 km/h 75 % 0 mm
16:55 17.7 °C 13.4 °C 1010.7 hPa South 7.2 km/h 16.7 km/h 76 % 0 mm
17:00 17.5 °C 13.2 °C 1010.7 hPa SSE 11.1 km/h 18.5 km/h 76 % 0 mm
17:05 17.4 °C 13.1 °C 1010.4 hPa South 5.8 km/h 9.7 km/h 76 % 0 mm
17:10 17.3 °C 13 °C 1010.4 hPa SSE 5.1 km/h 11.3 km/h 76 % 0 mm
17:15 17.2 °C 12.9 °C 1010.4 hPa SSW 8.7 km/h 14.8 km/h 76 % 0 mm
17:20 17 °C 12.9 °C 1010.4 hPa South 6.6 km/h 18.5 km/h 77 % 0 mm
17:25 16.8 °C 12.9 °C 1010.4 hPa SSW 9.5 km/h 14.8 km/h 78 % 0 mm
17:30 16.6 °C 12.9 °C 1010.4 hPa SSW 5.5 km/h 11.1 km/h 79 % 0 mm
17:35 16.4 °C 12.8 °C 1010.4 hPa South 11.1 km/h 16.7 km/h 79 % 0 mm
17:40 16.3 °C 12.8 °C 1010.4 hPa SSW 9.3 km/h 16.7 km/h 80 % 0 mm
17:45 16.1 °C 12.8 °C 1010.4 hPa SSE 5.8 km/h 16.7 km/h 81 % 0 mm
17:50 16 °C 12.9 °C 1010.4 hPa South 10.3 km/h 18.5 km/h 82 % 0 mm
17:56 15.9 °C 12.8 °C 1010.4 hPa South 4 km/h 9.3 km/h 82 % 0 mm
18:01 15.8 °C 12.9 °C 1010.7 hPa South 6.3 km/h 13 km/h 83 % 0 mm
18:06 15.6 °C 12.9 °C 1010.7 hPa SSW 6.6 km/h 16.7 km/h 84 % 0 mm
18:11 15.4 °C 12.8 °C 1010.7 hPa South 5 km/h 11.1 km/h 84 % 0 mm
18:16 15.3 °C 12.8 °C 1010.7 hPa South 8.2 km/h 14.5 km/h 85 % 0 mm
18:21 15.2 °C 12.7 °C 1010.7 hPa SSW 7.7 km/h 14.8 km/h 85 % 0 mm
18:26 15.1 °C 12.8 °C 1010.4 hPa South 10 km/h 14.8 km/h 86 % 0 mm
18:31 15 °C 12.8 °C 1010.4 hPa South 8 km/h 14.8 km/h 87 % 0 mm
18:36 14.9 °C 12.7 °C 1010.4 hPa SSE 8.4 km/h 16.7 km/h 87 % 0 mm
18:41 14.8 °C 12.7 °C 1010.4 hPa South 7.7 km/h 16.7 km/h 87 % 0 mm
18:46 14.7 °C 12.6 °C 1010.4 hPa South 8.9 km/h 14.8 km/h 87 % 0 mm
18:51 14.7 °C 12.6 °C 1010.4 hPa South 9 km/h 18.5 km/h 87 % 0 mm
18:56 14.7 °C 12.5 °C 1010.4 hPa South 9.2 km/h 14.8 km/h 87 % 0 mm
19:01 14.6 °C 12.4 °C 1010.7 hPa South 6.1 km/h 16.7 km/h 87 % 0 mm
19:06 14.6 °C 12.4 °C 1010.4 hPa South 8 km/h 18.5 km/h 87 % 0 mm
19:11 14.5 °C 12.6 °C 1010.4 hPa South 6.3 km/h 13 km/h 88 % 0 mm
19:16 14.5 °C 12.6 °C 1010.4 hPa South 7.1 km/h 11.3 km/h 88 % 0 mm
19:21 14.5 °C 12.7 °C 1010.4 hPa South 10.5 km/h 18.5 km/h 89 % 0 mm
19:26 14.6 °C 12.8 °C 1010.4 hPa South 12.7 km/h 22.2 km/h 89 % 0 mm
19:31 14.6 °C 12.8 °C 1010.4 hPa South 10.6 km/h 16.7 km/h 89 % 0 mm
19:36 14.6 °C 12.8 °C 1010.4 hPa SSW 6.9 km/h 14.8 km/h 89 % 0 mm
19:41 14.6 °C 13 °C 1010.4 hPa SSW 9 km/h 17.7 km/h 90 % 0 mm
19:46 14.6 °C 13 °C 1010.4 hPa South 7.6 km/h 14.8 km/h 90 % 0 mm
19:51 14.6 °C 12.9 °C 1010.4 hPa SSW 7.6 km/h 11.1 km/h 90 % 0 mm
19:57 14.6 °C 12.8 °C 1010.4 hPa SSW 5.6 km/h 11.1 km/h 89 % 0 mm
20:02 14.5 °C 12.9 °C 1010.4 hPa SSW 7.4 km/h 16.7 km/h 90 % 0 mm
20:07 14.4 °C 12.8 °C 1010.4 hPa SW 5.8 km/h 7.4 km/h 90 % 0 mm
20:12 14.4 °C 12.8 °C 1010.4 hPa SW 5.6 km/h 9.3 km/h 90 % 0 mm
20:17 14.4 °C 12.9 °C 1010.4 hPa SSW 5 km/h 7.4 km/h 91 % 0 mm
20:22 14.4 °C 12.9 °C 1010.4 hPa South 5.8 km/h 9.7 km/h 91 % 0 mm
20:27 14.4 °C 12.9 °C 1010.4 hPa SW 6.8 km/h 13 km/h 91 % 0 mm
20:32 14.4 °C 12.9 °C 1010.7 hPa SSW 8.2 km/h 11.1 km/h 91 % 0 mm
20:37 14.4 °C 12.9 °C 1010.4 hPa South 5.8 km/h 13 km/h 91 % 0 mm
20:42 14.4 °C 12.9 °C 1010.4 hPa SSW 6.9 km/h 8 km/h 91 % 0 mm
20:52 14.3 °C 12.9 °C 1010.4 hPa SSW 6.3 km/h 13 km/h 91 % 0 mm
20:57 14.3 °C 12.8 °C 1010.4 hPa SSW 6 km/h 7.4 km/h 91 % 0 mm
21:02 14.3 °C 13 °C 1010.4 hPa SSW 7.6 km/h 16.1 km/h 92 % 0 mm
21:07 14.2 °C 12.9 °C 1010.4 hPa SSE 3.7 km/h 9.3 km/h 92 % 0 mm
21:12 14.2 °C 12.9 °C 1010.4 hPa SW 5.5 km/h 11.1 km/h 92 % 0 mm
21:17 14.2 °C 12.9 °C 1010.4 hPa SSW 6 km/h 11.1 km/h 92 % 0 mm
21:22 14.2 °C 12.9 °C 1010.4 hPa SSW 3.7 km/h 9.3 km/h 92 % 0 mm
21:27 14.2 °C 13.1 °C 1010.4 hPa SW 6.8 km/h 16.7 km/h 93 % 0 mm
21:32 14.2 °C 13.1 °C 1010.4 hPa SW 4.3 km/h 7.4 km/h 93 % 0 mm
21:37 14.2 °C 13.1 °C 1010.4 hPa South 5.3 km/h 8 km/h 93 % 0 mm
21:42 14.1 °C 13 °C 1010.4 hPa South 7.1 km/h 11.1 km/h 93 % 0 mm
21:47 14.2 °C 13.1 °C 1010 hPa SSE 2.7 km/h 11.1 km/h 93 % 0 mm
21:53 14.2 °C 13.2 °C 1010.4 hPa South 7.4 km/h 11.3 km/h 94 % 0 mm
21:58 14.2 °C 13.2 °C 1010 hPa South 6.6 km/h 13 km/h 94 % 0 mm
22:03 14.2 °C 13.2 °C 1010 hPa SSW 8.9 km/h 16.1 km/h 94 % 0 mm
22:08 14.2 °C 13.2 °C 1010.4 hPa SW 6.3 km/h 11.3 km/h 94 % 0 mm
22:13 14.2 °C 13.2 °C 1010.4 hPa South 9.3 km/h 16.7 km/h 94 % 0 mm
22:18 14.2 °C 13.3 °C 1010 hPa SSW 11.4 km/h 18.5 km/h 94 % 0 mm
22:23 14.2 °C 13.4 °C 1010.4 hPa SSW 5.8 km/h 11.1 km/h 95 % 0 mm
22:28 14.2 °C 13.4 °C 1010 hPa SW 7.6 km/h 13 km/h 95 % 0 mm
22:33 14.3 °C 13.5 °C 1010.4 hPa South 7.2 km/h 9.3 km/h 95 % 0 mm
22:38 14.3 °C 13.5 °C 1010.4 hPa SSE 3.1 km/h 8 km/h 95 % 0 mm
22:43 14.3 °C 13.5 °C 1010 hPa SSW 9.5 km/h 14.8 km/h 95 % 0 mm
22:54 14.2 °C 13.4 °C 1010.4 hPa SW 10.1 km/h 18.5 km/h 95 % 0 mm
22:59 14.2 °C 13.4 °C 1010.4 hPa South 9.3 km/h 16.7 km/h 95 % 0 mm
23:04 14.2 °C 13.4 °C 1010.4 hPa SSW 6.8 km/h 13 km/h 95 % 0 mm
23:09 14.2 °C 13.4 °C 1010.4 hPa SSW 10.6 km/h 11.3 km/h 95 % 0 mm
23:14 14.1 °C 13.2 °C 1010.4 hPa SSW 10 km/h 18.5 km/h 94 % 0 mm
23:19 14.1 °C 13.1 °C 1010 hPa SSW 7.2 km/h 13 km/h 94 % 0 mm
23:24 13.9 °C 13 °C 1010 hPa SSW 8.5 km/h 13 km/h 94 % 0 mm
23:29 13.9 °C 12.9 °C 1010 hPa SSW 7.1 km/h 18.5 km/h 94 % 0 mm
23:34 13.8 °C 12.9 °C 1010.4 hPa SSW 12.4 km/h 20.4 km/h 94 % 0 mm
23:39 13.8 °C 12.8 °C 1010 hPa SSW 8.4 km/h 11.3 km/h 94 % 0 mm
23:44 13.7 °C 12.8 °C 1010 hPa SSW 8.9 km/h 13 km/h 94 % 0 mm
23:49 13.7 °C 12.7 °C 1010.4 hPa South 8 km/h 11.1 km/h 94 % 0 mm
23:54 13.6 °C 12.8 °C 1010 hPa SSW 4.8 km/h 11.1 km/h 95 % 0 mm
23:59 13.6 °C 12.8 °C 1010 hPa SW 4.5 km/h 11.1 km/h 95 % 0 mm
Crab Meadow Weather
Compliments of Weather Underground - 3 mb

Script developed by  Jim McMurry - jmcmurry@mwt.net Adapted for the template by  Wim van der Kuil - Leuven-Template.eu

Heat Index: The heat index combines air temperature and dew point in an attempt to determine the human-perceived equivalent temperature - how hot it feels. The human body normally cools itself by sweating, which evaporates and carries heat away from the body. However, when the relative humidity is high the evaporation rate is reduced, so heat is removed from the body at a lower rate causing it to retain more heat than it would in dry air.